Cottage Grove, OR

6:59 PM PDT on October 01, 2014 (GMT -0700)
Cottage Grove--West, milepost 2 | Change Station
CLOSE
Current Station
Personal Weather Station
Location: Cottage Grove, OR
Elevation: 683 ft
Nearby Weather Stations

Elev 683 ft 43.80 °N, 123.10 °W | Updated 9 minutes ago

Partly Cloudy
Partly Cloudy
55.9 °F
Feels Like 55.9 °F
N
3.0
Wind Variable Wind from West
Gusts 3.0 mph

Today
High -- | Low -- °F
--% Chance of Precip.
Yesterday
High -- | Low -- °F
Precip. -- in
7:09 AM 6:52 PM
First Quarter, 53% visible
Pressure 30.17 in
Visibility 10.0 miles
Clouds Few 8000 ft
Few 25000 ft
Dew Point 50 °F
Humidity 79%
Rainfall 0.00 in
Snow Depth 1 in , 0 in , 0 in
UV 0 out of 12
Pollen 1.20 out of 12
PM2.5 Good
Flu Activity Not available.
METAR KEUG 020154Z 02008KT 10SM FEW080 FEW250 16/07 A3016 RMK AO2 SLP214 T01610067

More Conditions Fewer Conditions

Pressure 30.17 in
Visibility 10.0 miles
Clouds Few 8000 ft
Few 25000 ft
Dew Point 50 °F
Humidity 79%
Rainfall 0.00 in
Snow Depth 1 in , 0 in , 0 in
UV 0 out of 12
Pollen 1.20 out of 12
PM2.5 Good
Flu Activity Not available.
METAR KEUG 020154Z 02008KT 10SM FEW080 FEW250 16/07 A3016 RMK AO2 SLP214 T01610067

More Conditions Fewer Conditions

10-Day Weather Forecast

Almanac

Astronomy

Oct. 01, 2014 Rise Set
Actual Time 7:09 AM PDT 6:52 PM PDT
Civil Twilight 6:41 AM PDT 7:21 PM PDT
Nautical Twilight 6:07 AM PDT 7:54 PM PDT
Astronomical Twilight 5:34 AM PDT 8:28 PM PDT
Moon 2:23 PM PDT (10/1) No Moon Set
Length of Visible Light 12h 40m
Length of Day
11h 43m
Tomorrow will be 2m 58s shorter.
First Quarter, 53% of the Moon is Illuminated
Today
First Quarter
Oct 8
Full
Oct 15
Last Quarter
Oct 23
New
Oct 30
First Quarter

Today's Extremes

State Highs State Lows

Community

WunderPhotos

Upload Photos

1,758,118 photos uploaded!

WunderBlogs® & News

Nearby

Air Quality

  Air Quality AQ Index Pollutant
Yesterday Good
OZONE
Yesterday Good
PM2.5
Current Good
PM2.5
Wednesday Good
PM2.5
Wednesday Good
OZONE
Thursday Good
PM2.5
Thursday Good
OZONE

Snow Depth

Station Depth Elevation
Fourmile Lake 1 in 6000 ft
Fish Lake 0 in 4665 ft
Roaring River 0 in 4900 ft
Madison Butte 0 in 5250 ft
Mud Ridge 0 in 3800 ft

Earthquake Activity

City Distance Mag. Time & Date
No recent earthquake activity has been reported nearby.
Minimum magnitude displayed is 2.5.

Coastal Water Temperatures

Place Temperature
No Stations Reporting

Nearby Weather Stations